Terminal Aerodrome Forecast
Issued by NWS Cleveland, OH

Home | Current Version | Previous Version | Graphics & Text | Print | Product List | Glossary On
Versions: 1 2 3 4 5 6 7 8 9 10 11 12 13 14 15 16 17 18 19 20 21 22 23 24 25 26 27
096
FTUS41 KCLE 060852 AAA
TAFCLE
TAF AMD
KCLE 060852Z 0609/0712 05006KT P6SM SCT100 OVC200
     FM061100 09010KT P6SM OVC070
     FM061600 10012KT 5SM -RA OVC025
     FM061800 11010G18KT 3SM -RA BR OVC008
     FM070100 25012G20KT P6SM OVC025=

USA.gov is the U.S. government's official web portal to all federal, state and local government web resources and services.